Martin, Pennsylvania
Current Conditions -  °F | °C
As of 3:53 PM on Friday 28 Nov 2014 (Local Time) from KMGW Reporting Station
Light Snow Light Snow  
Wind Chill: 23°   Ceiling: 3400
Heat Index: 29°   Visibility: 9mi
Dew Point: 15°   Wind: 6mph
Humidity: 56%   Direction: 200°SSW
Pressure: 30.25"   Gusts: NA
Location:  39.81°N, 79.91°W
Report Text: KMGW 282053Z AUTO 20005KT 9SM -SN OVC034 M02/M09 A3025 RMK AO2 SLP258 P0000 60000 T10171094 56011 TSNO
Loading
Personal Weather Stations






























Interactive Weather Map New forecast layout! Learn more

10-Day Weather Forecast

Advertisements
Track Severe Weather on mobile